sensor_id;sensor_type;location;lat;lon;timestamp;P1;durP1;ratioP1;P2;durP2;ratioP2
70253;SDS011;57649;42.968;1.608;2023-06-14T00:01:14;3.97;;;1.90;;
70253;SDS011;57649;42.968;1.608;2023-06-14T00:03:39;2.75;;;2.10;;
70253;SDS011;57649;42.968;1.608;2023-06-14T00:06:04;3.75;;;2.10;;
70253;SDS011;57649;42.968;1.608;2023-06-14T00:08:30;3.75;;;2.38;;
70253;SDS011;57649;42.968;1.608;2023-06-14T00:10:55;3.08;;;2.40;;
70253;SDS011;57649;42.968;1.608;2023-06-14T00:13:21;4.57;;;2.33;;
70253;SDS011;57649;42.968;1.608;2023-06-14T00:15:46;5.53;;;2.25;;
70253;SDS011;57649;42.968;1.608;2023-06-14T00:18:12;4.22;;;2.28;;
70253;SDS011;57649;42.968;1.608;2023-06-14T00:20:38;6.18;;;2.33;;
70253;SDS011;57649;42.968;1.608;2023-06-14T00:23:04;3.95;;;2.03;;
70253;SDS011;57649;42.968;1.608;2023-06-14T00:25:30;5.07;;;2.42;;
70253;SDS011;57649;42.968;1.608;2023-06-14T00:27:55;4.63;;;2.08;;
70253;SDS011;57649;42.968;1.608;2023-06-14T00:30:22;6.55;;;2.20;;
70253;SDS011;57649;42.968;1.608;2023-06-14T00:32:47;3.70;;;2.17;;
70253;SDS011;57649;42.968;1.608;2023-06-14T00:35:13;9.35;;;2.33;;
70253;SDS011;57649;42.968;1.608;2023-06-14T00:37:39;5.13;;;2.30;;
70253;SDS011;57649;42.968;1.608;2023-06-14T00:40:05;4.75;;;2.40;;
70253;SDS011;57649;42.968;1.608;2023-06-14T00:42:31;4.47;;;2.50;;
70253;SDS011;57649;42.968;1.608;2023-06-14T00:44:57;5.22;;;2.42;;
70253;SDS011;57649;42.968;1.608;2023-06-14T00:47:22;4.63;;;2.50;;
70253;SDS011;57649;42.968;1.608;2023-06-14T00:49:49;4.32;;;2.47;;
70253;SDS011;57649;42.968;1.608;2023-06-14T00:52:16;4.47;;;2.25;;
70253;SDS011;57649;42.968;1.608;2023-06-14T00:54:42;3.70;;;2.03;;
70253;SDS011;57649;42.968;1.608;2023-06-14T00:57:08;3.92;;;2.00;;
70253;SDS011;57649;42.968;1.608;2023-06-14T00:59:36;3.13;;;2.08;;
70253;SDS011;57649;42.968;1.608;2023-06-14T01:02:06;3.72;;;2.38;;
70253;SDS011;57649;42.968;1.608;2023-06-14T01:04:32;7.53;;;2.45;;
70253;SDS011;57649;42.968;1.608;2023-06-14T01:12:36;3.95;;;2.10;;
70253;SDS011;57649;42.968;1.608;2023-06-14T01:15:09;8.52;;;3.10;;
70253;SDS011;57649;42.968;1.608;2023-06-14T01:17:37;7.75;;;2.75;;
70253;SDS011;57649;42.968;1.608;2023-06-14T01:20:09;4.70;;;2.30;;
70253;SDS011;57649;42.968;1.608;2023-06-14T01:22:45;7.55;;;2.70;;
70253;SDS011;57649;42.968;1.608;2023-06-14T01:25:16;4.25;;;2.53;;
70253;SDS011;57649;42.968;1.608;2023-06-14T01:27:45;4.90;;;2.40;;
70253;SDS011;57649;42.968;1.608;2023-06-14T01:30:13;6.53;;;2.92;;
70253;SDS011;57649;42.968;1.608;2023-06-14T01:32:39;3.53;;;2.35;;
70253;SDS011;57649;42.968;1.608;2023-06-14T01:35:05;4.10;;;2.70;;
70253;SDS011;57649;42.968;1.608;2023-06-14T01:37:31;4.32;;;2.45;;
70253;SDS011;57649;42.968;1.608;2023-06-14T01:39:57;6.10;;;2.40;;
70253;SDS011;57649;42.968;1.608;2023-06-14T01:42:23;4.53;;;2.72;;
70253;SDS011;57649;42.968;1.608;2023-06-14T01:44:50;5.85;;;2.50;;
70253;SDS011;57649;42.968;1.608;2023-06-14T01:47:18;6.95;;;2.60;;
70253;SDS011;57649;42.968;1.608;2023-06-14T01:49:45;6.10;;;2.67;;
70253;SDS011;57649;42.968;1.608;2023-06-14T01:52:11;4.53;;;1.45;;
70253;SDS011;57649;42.968;1.608;2023-06-14T01:54:37;4.63;;;1.60;;
70253;SDS011;57649;42.968;1.608;2023-06-14T01:57:06;4.30;;;1.52;;
70253;SDS011;57649;42.968;1.608;2023-06-14T01:59:33;5.05;;;1.33;;
70253;SDS011;57649;42.968;1.608;2023-06-14T02:02:00;5.22;;;1.42;;
70253;SDS011;57649;42.968;1.608;2023-06-14T02:04:27;6.25;;;1.20;;
70253;SDS011;57649;42.968;1.608;2023-06-14T02:06:53;7.22;;;1.40;;
70253;SDS011;57649;42.968;1.608;2023-06-14T02:09:18;1.67;;;1.20;;
70253;SDS011;57649;42.968;1.608;2023-06-14T02:11:43;2.13;;;1.20;;
70253;SDS011;57649;42.968;1.608;2023-06-14T02:14:09;1.85;;;1.60;;
70253;SDS011;57649;42.968;1.608;2023-06-14T02:16:36;4.38;;;1.90;;
70253;SDS011;57649;42.968;1.608;2023-06-14T02:19:02;4.93;;;2.10;;
70253;SDS011;57649;42.968;1.608;2023-06-14T02:21:27;6.35;;;2.65;;
70253;SDS011;57649;42.968;1.608;2023-06-14T02:23:53;4.28;;;2.45;;
70253;SDS011;57649;42.968;1.608;2023-06-14T02:26:18;2.80;;;2.30;;
70253;SDS011;57649;42.968;1.608;2023-06-14T02:28:43;3.53;;;2.15;;
70253;SDS011;57649;42.968;1.608;2023-06-14T02:31:09;3.70;;;2.28;;
70253;SDS011;57649;42.968;1.608;2023-06-14T02:33:34;3.28;;;2.20;;
70253;SDS011;57649;42.968;1.608;2023-06-14T02:36:00;5.03;;;2.35;;
70253;SDS011;57649;42.968;1.608;2023-06-14T02:38:27;3.47;;;2.40;;
70253;SDS011;57649;42.968;1.608;2023-06-14T02:40:53;3.90;;;2.60;;
70253;SDS011;57649;42.968;1.608;2023-06-14T02:43:18;3.53;;;2.63;;
70253;SDS011;57649;42.968;1.608;2023-06-14T02:45:44;5.28;;;2.55;;
70253;SDS011;57649;42.968;1.608;2023-06-14T02:48:10;4.53;;;1.92;;
70253;SDS011;57649;42.968;1.608;2023-06-14T02:50:36;3.33;;;2.60;;
70253;SDS011;57649;42.968;1.608;2023-06-14T02:53:01;5.18;;;2.33;;
70253;SDS011;57649;42.968;1.608;2023-06-14T02:55:28;4.00;;;2.30;;
70253;SDS011;57649;42.968;1.608;2023-06-14T02:57:54;7.88;;;2.90;;
70253;SDS011;57649;42.968;1.608;2023-06-14T03:00:19;4.75;;;2.70;;
70253;SDS011;57649;42.968;1.608;2023-06-14T03:02:45;8.88;;;6.30;;
70253;SDS011;57649;42.968;1.608;2023-06-14T03:05:10;4.22;;;3.22;;
70253;SDS011;57649;42.968;1.608;2023-06-14T03:07:36;6.03;;;2.80;;
70253;SDS011;57649;42.968;1.608;2023-06-14T03:10:06;4.40;;;2.90;;
70253;SDS011;57649;42.968;1.608;2023-06-14T03:12:35;4.28;;;2.95;;
70253;SDS011;57649;42.968;1.608;2023-06-14T03:15:01;3.80;;;2.50;;
70253;SDS011;57649;42.968;1.608;2023-06-14T03:17:27;5.88;;;2.78;;
70253;SDS011;57649;42.968;1.608;2023-06-14T03:19:55;5.10;;;2.92;;
70253;SDS011;57649;42.968;1.608;2023-06-14T03:22:20;5.20;;;2.15;;
70253;SDS011;57649;42.968;1.608;2023-06-14T03:24:47;5.13;;;2.42;;
70253;SDS011;57649;42.968;1.608;2023-06-14T03:27:13;4.03;;;2.72;;
70253;SDS011;57649;42.968;1.608;2023-06-14T03:29:39;4.50;;;2.78;;
70253;SDS011;57649;42.968;1.608;2023-06-14T03:32:05;5.43;;;2.78;;
70253;SDS011;57649;42.968;1.608;2023-06-14T03:34:30;3.97;;;2.63;;
70253;SDS011;57649;42.968;1.608;2023-06-14T03:36:56;4.63;;;2.30;;
70253;SDS011;57649;42.968;1.608;2023-06-14T03:39:21;6.32;;;2.78;;
70253;SDS011;57649;42.968;1.608;2023-06-14T03:41:47;5.05;;;3.08;;
70253;SDS011;57649;42.968;1.608;2023-06-14T03:44:16;14.90;;;4.70;;
70253;SDS011;57649;42.968;1.608;2023-06-14T03:46:45;9.02;;;3.75;;
70253;SDS011;57649;42.968;1.608;2023-06-14T03:49:11;11.50;;;4.80;;
70253;SDS011;57649;42.968;1.608;2023-06-14T03:51:37;6.75;;;3.13;;
70253;SDS011;57649;42.968;1.608;2023-06-14T03:54:02;6.60;;;3.17;;
70253;SDS011;57649;42.968;1.608;2023-06-14T03:56:28;6.90;;;3.42;;
70253;SDS011;57649;42.968;1.608;2023-06-14T03:58:53;5.50;;;3.08;;
70253;SDS011;57649;42.968;1.608;2023-06-14T04:01:18;4.15;;;2.35;;
70253;SDS011;57649;42.968;1.608;2023-06-14T04:03:44;4.85;;;2.22;;
70253;SDS011;57649;42.968;1.608;2023-06-14T04:06:09;4.53;;;2.75;;
70253;SDS011;57649;42.968;1.608;2023-06-14T04:08:35;6.40;;;2.85;;
70253;SDS011;57649;42.968;1.608;2023-06-14T04:11:01;3.28;;;2.55;;
70253;SDS011;57649;42.968;1.608;2023-06-14T04:13:26;7.00;;;2.70;;
70253;SDS011;57649;42.968;1.608;2023-06-14T04:15:52;4.80;;;2.88;;
70253;SDS011;57649;42.968;1.608;2023-06-14T04:18:17;5.03;;;3.00;;
70253;SDS011;57649;42.968;1.608;2023-06-14T04:20:44;3.55;;;3.10;;
70253;SDS011;57649;42.968;1.608;2023-06-14T04:23:11;7.38;;;3.70;;
70253;SDS011;57649;42.968;1.608;2023-06-14T04:25:38;5.95;;;3.40;;
70253;SDS011;57649;42.968;1.608;2023-06-14T04:28:03;5.85;;;2.72;;
70253;SDS011;57649;42.968;1.608;2023-06-14T04:30:29;4.25;;;3.03;;
70253;SDS011;57649;42.968;1.608;2023-06-14T04:32:56;5.50;;;2.70;;
70253;SDS011;57649;42.968;1.608;2023-06-14T04:35:22;4.85;;;2.70;;
70253;SDS011;57649;42.968;1.608;2023-06-14T04:37:50;7.32;;;3.17;;
70253;SDS011;57649;42.968;1.608;2023-06-14T04:40:16;6.93;;;3.33;;
70253;SDS011;57649;42.968;1.608;2023-06-14T04:42:41;4.88;;;3.20;;
70253;SDS011;57649;42.968;1.608;2023-06-14T04:45:09;5.38;;;3.50;;
70253;SDS011;57649;42.968;1.608;2023-06-14T04:47:36;5.10;;;3.50;;
70253;SDS011;57649;42.968;1.608;2023-06-14T04:50:02;4.60;;;3.25;;
70253;SDS011;57649;42.968;1.608;2023-06-14T04:52:28;6.53;;;4.03;;
70253;SDS011;57649;42.968;1.608;2023-06-14T04:54:55;5.63;;;3.60;;
70253;SDS011;57649;42.968;1.608;2023-06-14T04:57:21;6.13;;;3.85;;
70253;SDS011;57649;42.968;1.608;2023-06-14T04:59:47;4.82;;;4.40;;
70253;SDS011;57649;42.968;1.608;2023-06-14T05:02:13;4.32;;;3.60;;
70253;SDS011;57649;42.968;1.608;2023-06-14T05:04:39;5.03;;;3.65;;
70253;SDS011;57649;42.968;1.608;2023-06-14T05:07:08;5.32;;;4.00;;
70253;SDS011;57649;42.968;1.608;2023-06-14T05:09:34;7.78;;;4.97;;
70253;SDS011;57649;42.968;1.608;2023-06-14T05:12:00;5.40;;;4.70;;
70253;SDS011;57649;42.968;1.608;2023-06-14T05:14:26;6.32;;;5.07;;
70253;SDS011;57649;42.968;1.608;2023-06-14T05:16:52;7.43;;;4.80;;
70253;SDS011;57649;42.968;1.608;2023-06-14T05:19:18;5.18;;;4.65;;
70253;SDS011;57649;42.968;1.608;2023-06-14T05:21:44;8.35;;;5.40;;
70253;SDS011;57649;42.968;1.608;2023-06-14T05:24:09;5.43;;;4.55;;
70253;SDS011;57649;42.968;1.608;2023-06-14T05:26:36;7.05;;;5.30;;
70253;SDS011;57649;42.968;1.608;2023-06-14T05:29:02;6.63;;;4.82;;
70253;SDS011;57649;42.968;1.608;2023-06-14T05:31:27;8.07;;;5.63;;
70253;SDS011;57649;42.968;1.608;2023-06-14T05:33:53;5.32;;;4.80;;
70253;SDS011;57649;42.968;1.608;2023-06-14T05:36:20;7.88;;;5.43;;
70253;SDS011;57649;42.968;1.608;2023-06-14T05:38:48;8.63;;;6.75;;
70253;SDS011;57649;42.968;1.608;2023-06-14T05:41:14;9.68;;;5.70;;
70253;SDS011;57649;42.968;1.608;2023-06-14T05:43:39;7.07;;;4.35;;
70253;SDS011;57649;42.968;1.608;2023-06-14T05:46:05;7.57;;;4.82;;
70253;SDS011;57649;42.968;1.608;2023-06-14T05:48:30;7.93;;;4.25;;
70253;SDS011;57649;42.968;1.608;2023-06-14T05:50:56;4.28;;;3.83;;
70253;SDS011;57649;42.968;1.608;2023-06-14T05:53:21;5.63;;;3.40;;
70253;SDS011;57649;42.968;1.608;2023-06-14T05:55:46;3.38;;;3.08;;
70253;SDS011;57649;42.968;1.608;2023-06-14T05:58:12;7.38;;;3.58;;
70253;SDS011;57649;42.968;1.608;2023-06-14T06:00:38;11.43;;;3.90;;
70253;SDS011;57649;42.968;1.608;2023-06-14T06:03:04;5.72;;;4.30;;
70253;SDS011;57649;42.968;1.608;2023-06-14T06:05:30;5.60;;;3.58;;
70253;SDS011;57649;42.968;1.608;2023-06-14T06:07:55;6.70;;;3.30;;
70253;SDS011;57649;42.968;1.608;2023-06-14T06:10:21;4.80;;;3.50;;
70253;SDS011;57649;42.968;1.608;2023-06-14T06:12:46;8.00;;;6.40;;
70253;SDS011;57649;42.968;1.608;2023-06-14T06:15:13;5.60;;;2.72;;
70253;SDS011;57649;42.968;1.608;2023-06-14T06:17:39;8.85;;;5.43;;
70253;SDS011;57649;42.968;1.608;2023-06-14T06:20:05;8.80;;;5.38;;
70253;SDS011;57649;42.968;1.608;2023-06-14T06:22:33;8.73;;;3.55;;
70253;SDS011;57649;42.968;1.608;2023-06-14T06:25:01;7.30;;;3.63;;
70253;SDS011;57649;42.968;1.608;2023-06-14T06:27:27;5.32;;;3.50;;
70253;SDS011;57649;42.968;1.608;2023-06-14T06:29:53;3.90;;;3.00;;
70253;SDS011;57649;42.968;1.608;2023-06-14T06:32:18;4.90;;;3.90;;
70253;SDS011;57649;42.968;1.608;2023-06-14T06:34:44;5.72;;;4.72;;
70253;SDS011;57649;42.968;1.608;2023-06-14T06:37:10;4.72;;;4.32;;
70253;SDS011;57649;42.968;1.608;2023-06-14T06:39:35;5.13;;;4.60;;
70253;SDS011;57649;42.968;1.608;2023-06-14T06:42:01;6.55;;;4.50;;
70253;SDS011;57649;42.968;1.608;2023-06-14T06:44:26;6.07;;;4.70;;
70253;SDS011;57649;42.968;1.608;2023-06-14T06:46:51;5.40;;;4.70;;
70253;SDS011;57649;42.968;1.608;2023-06-14T06:49:18;5.25;;;4.60;;
70253;SDS011;57649;42.968;1.608;2023-06-14T06:51:53;7.03;;;5.20;;
70253;SDS011;57649;42.968;1.608;2023-06-14T06:54:25;6.00;;;5.30;;
70253;SDS011;57649;42.968;1.608;2023-06-14T06:56:51;5.40;;;4.22;;
70253;SDS011;57649;42.968;1.608;2023-06-14T06:59:16;5.10;;;4.28;;
70253;SDS011;57649;42.968;1.608;2023-06-14T07:01:41;4.47;;;3.97;;
70253;SDS011;57649;42.968;1.608;2023-06-14T07:04:07;5.18;;;4.55;;
70253;SDS011;57649;42.968;1.608;2023-06-14T07:06:32;4.50;;;4.10;;
70253;SDS011;57649;42.968;1.608;2023-06-14T07:08:58;4.75;;;4.25;;
70253;SDS011;57649;42.968;1.608;2023-06-14T07:11:26;5.13;;;4.43;;
70253;SDS011;57649;42.968;1.608;2023-06-14T07:13:52;4.43;;;4.03;;
70253;SDS011;57649;42.968;1.608;2023-06-14T07:16:18;7.10;;;4.03;;
70253;SDS011;57649;42.968;1.608;2023-06-14T07:18:43;4.47;;;3.75;;
70253;SDS011;57649;42.968;1.608;2023-06-14T07:21:09;4.47;;;4.07;;
70253;SDS011;57649;42.968;1.608;2023-06-14T07:23:34;5.65;;;3.75;;
70253;SDS011;57649;42.968;1.608;2023-06-14T07:26:00;5.20;;;3.55;;
70253;SDS011;57649;42.968;1.608;2023-06-14T07:28:25;4.45;;;4.05;;
70253;SDS011;57649;42.968;1.608;2023-06-14T07:30:51;5.70;;;3.92;;
70253;SDS011;57649;42.968;1.608;2023-06-14T07:33:16;5.15;;;4.28;;
70253;SDS011;57649;42.968;1.608;2023-06-14T07:35:42;6.75;;;5.15;;
70253;SDS011;57649;42.968;1.608;2023-06-14T07:38:07;6.10;;;4.85;;
70253;SDS011;57649;42.968;1.608;2023-06-14T07:40:33;5.13;;;4.63;;
70253;SDS011;57649;42.968;1.608;2023-06-14T07:42:58;5.22;;;4.53;;
70253;SDS011;57649;42.968;1.608;2023-06-14T07:45:23;6.03;;;4.82;;
70253;SDS011;57649;42.968;1.608;2023-06-14T07:47:49;5.47;;;4.95;;
70253;SDS011;57649;42.968;1.608;2023-06-14T07:50:15;7.45;;;5.35;;
70253;SDS011;57649;42.968;1.608;2023-06-14T07:52:40;7.20;;;5.18;;
70253;SDS011;57649;42.968;1.608;2023-06-14T07:55:06;6.15;;;5.30;;
70253;SDS011;57649;42.968;1.608;2023-06-14T07:57:31;7.18;;;5.32;;
70253;SDS011;57649;42.968;1.608;2023-06-14T07:59:57;6.97;;;5.80;;
70253;SDS011;57649;42.968;1.608;2023-06-14T08:02:22;7.03;;;5.82;;
70253;SDS011;57649;42.968;1.608;2023-06-14T08:04:48;12.02;;;8.68;;
70253;SDS011;57649;42.968;1.608;2023-06-14T08:07:13;8.35;;;6.28;;
70253;SDS011;57649;42.968;1.608;2023-06-14T08:09:39;10.02;;;7.72;;
70253;SDS011;57649;42.968;1.608;2023-06-14T08:12:05;7.07;;;6.38;;
70253;SDS011;57649;42.968;1.608;2023-06-14T08:14:38;16.48;;;9.80;;
70253;SDS011;57649;42.968;1.608;2023-06-14T08:17:04;7.70;;;6.38;;
70253;SDS011;57649;42.968;1.608;2023-06-14T08:19:30;10.07;;;6.70;;
70253;SDS011;57649;42.968;1.608;2023-06-14T08:21:56;7.88;;;6.57;;
70253;SDS011;57649;42.968;1.608;2023-06-14T08:24:22;10.88;;;7.50;;
70253;SDS011;57649;42.968;1.608;2023-06-14T08:26:52;9.75;;;6.97;;
70253;SDS011;57649;42.968;1.608;2023-06-14T08:29:18;10.05;;;7.05;;
70253;SDS011;57649;42.968;1.608;2023-06-14T08:31:43;8.93;;;6.93;;
70253;SDS011;57649;42.968;1.608;2023-06-14T08:34:09;11.13;;;8.35;;
70253;SDS011;57649;42.968;1.608;2023-06-14T08:36:37;10.07;;;7.70;;
70253;SDS011;57649;42.968;1.608;2023-06-14T08:39:03;10.00;;;7.40;;
70253;SDS011;57649;42.968;1.608;2023-06-14T08:41:28;10.32;;;6.82;;
70253;SDS011;57649;42.968;1.608;2023-06-14T08:43:54;9.98;;;7.80;;
70253;SDS011;57649;42.968;1.608;2023-06-14T08:46:21;8.55;;;7.05;;
70253;SDS011;57649;42.968;1.608;2023-06-14T08:48:52;10.23;;;7.07;;
70253;SDS011;57649;42.968;1.608;2023-06-14T08:53:54;9.77;;;7.78;;
70253;SDS011;57649;42.968;1.608;2023-06-14T08:56:26;9.27;;;6.85;;
70253;SDS011;57649;42.968;1.608;2023-06-14T08:58:54;11.27;;;7.03;;
70253;SDS011;57649;42.968;1.608;2023-06-14T09:01:20;8.70;;;6.57;;
70253;SDS011;57649;42.968;1.608;2023-06-14T09:03:46;9.27;;;7.22;;
70253;SDS011;57649;42.968;1.608;2023-06-14T09:06:13;7.55;;;6.60;;
70253;SDS011;57649;42.968;1.608;2023-06-14T09:08:42;8.88;;;7.07;;
70253;SDS011;57649;42.968;1.608;2023-06-14T09:11:15;7.65;;;6.75;;
70253;SDS011;57649;42.968;1.608;2023-06-14T09:13:43;10.52;;;6.60;;
70253;SDS011;57649;42.968;1.608;2023-06-14T09:16:09;11.55;;;7.47;;
70253;SDS011;57649;42.968;1.608;2023-06-14T09:18:36;9.60;;;7.00;;
70253;SDS011;57649;42.968;1.608;2023-06-14T09:21:06;9.23;;;7.72;;
70253;SDS011;57649;42.968;1.608;2023-06-14T09:23:38;10.25;;;7.10;;
70253;SDS011;57649;42.968;1.608;2023-06-14T09:26:08;8.38;;;6.88;;
70253;SDS011;57649;42.968;1.608;2023-06-14T09:28:44;11.55;;;7.68;;
70253;SDS011;57649;42.968;1.608;2023-06-14T09:31:13;9.50;;;7.47;;
70253;SDS011;57649;42.968;1.608;2023-06-14T09:33:47;10.50;;;7.78;;
70253;SDS011;57649;42.968;1.608;2023-06-14T09:36:17;10.65;;;7.80;;
70253;SDS011;57649;42.968;1.608;2023-06-14T09:41:18;8.05;;;7.18;;
70253;SDS011;57649;42.968;1.608;2023-06-14T09:43:44;12.52;;;7.88;;
70253;SDS011;57649;42.968;1.608;2023-06-14T09:46:12;9.77;;;7.47;;
70253;SDS011;57649;42.968;1.608;2023-06-14T09:48:38;8.27;;;7.40;;
70253;SDS011;57649;42.968;1.608;2023-06-14T09:51:07;8.90;;;7.55;;
70253;SDS011;57649;42.968;1.608;2023-06-14T09:53:35;12.23;;;8.10;;
70253;SDS011;57649;42.968;1.608;2023-06-14T09:56:02;12.90;;;7.60;;
70253;SDS011;57649;42.968;1.608;2023-06-14T09:58:29;13.45;;;7.50;;
70253;SDS011;57649;42.968;1.608;2023-06-14T10:00:57;13.00;;;7.35;;
70253;SDS011;57649;42.968;1.608;2023-06-14T10:03:25;10.32;;;7.03;;
70253;SDS011;57649;42.968;1.608;2023-06-14T10:05:53;10.50;;;8.25;;
70253;SDS011;57649;42.968;1.608;2023-06-14T10:08:26;10.57;;;7.60;;
70253;SDS011;57649;42.968;1.608;2023-06-14T10:10:53;8.38;;;7.38;;
70253;SDS011;57649;42.968;1.608;2023-06-14T10:13:20;10.32;;;7.70;;
70253;SDS011;57649;42.968;1.608;2023-06-14T10:18:48;9.52;;;7.25;;
70253;SDS011;57649;42.968;1.608;2023-06-14T10:21:41;10.27;;;7.75;;
70253;SDS011;57649;42.968;1.608;2023-06-14T10:24:13;9.48;;;7.28;;
70253;SDS011;57649;42.968;1.608;2023-06-14T10:26:51;9.20;;;7.13;;
70253;SDS011;57649;42.968;1.608;2023-06-14T10:29:18;12.45;;;7.47;;
70253;SDS011;57649;42.968;1.608;2023-06-14T10:31:44;12.50;;;6.85;;
70253;SDS011;57649;42.968;1.608;2023-06-14T10:34:32;12.65;;;7.28;;
70253;SDS011;57649;42.968;1.608;2023-06-14T10:37:14;9.85;;;7.43;;
70253;SDS011;57649;42.968;1.608;2023-06-14T10:39:41;9.73;;;7.47;;
70253;SDS011;57649;42.968;1.608;2023-06-14T10:42:09;15.65;;;10.45;;
70253;SDS011;57649;42.968;1.608;2023-06-14T10:44:41;8.32;;;7.40;;
70253;SDS011;57649;42.968;1.608;2023-06-14T10:49:49;9.85;;;7.13;;
70253;SDS011;57649;42.968;1.608;2023-06-14T10:52:17;12.50;;;7.20;;
70253;SDS011;57649;42.968;1.608;2023-06-14T10:57:52;8.60;;;6.85;;
70253;SDS011;57649;42.968;1.608;2023-06-14T11:00:24;11.13;;;7.75;;
70253;SDS011;57649;42.968;1.608;2023-06-14T11:05:26;9.90;;;6.95;;
70253;SDS011;57649;42.968;1.608;2023-06-14T11:10:44;10.38;;;7.13;;
70253;SDS011;57649;42.968;1.608;2023-06-14T11:13:12;8.63;;;7.25;;
70253;SDS011;57649;42.968;1.608;2023-06-14T11:15:43;7.70;;;6.88;;
70253;SDS011;57649;42.968;1.608;2023-06-14T11:18:10;11.48;;;6.80;;
70253;SDS011;57649;42.968;1.608;2023-06-14T11:20:52;10.55;;;6.75;;
70253;SDS011;57649;42.968;1.608;2023-06-14T11:23:18;9.38;;;6.50;;
70253;SDS011;57649;42.968;1.608;2023-06-14T11:25:43;8.98;;;6.88;;
70253;SDS011;57649;42.968;1.608;2023-06-14T11:28:09;9.15;;;6.97;;
70253;SDS011;57649;42.968;1.608;2023-06-14T11:30:34;10.40;;;8.35;;
70253;SDS011;57649;42.968;1.608;2023-06-14T11:32:59;11.30;;;7.75;;
70253;SDS011;57649;42.968;1.608;2023-06-14T11:35:25;11.48;;;7.40;;
70253;SDS011;57649;42.968;1.608;2023-06-14T11:37:57;9.90;;;7.57;;
70253;SDS011;57649;42.968;1.608;2023-06-14T11:40:26;10.68;;;7.32;;
70253;SDS011;57649;42.968;1.608;2023-06-14T11:42:59;9.30;;;6.80;;
70253;SDS011;57649;42.968;1.608;2023-06-14T11:45:25;9.98;;;6.80;;
70253;SDS011;57649;42.968;1.608;2023-06-14T11:47:51;10.77;;;6.80;;
70253;SDS011;57649;42.968;1.608;2023-06-14T11:50:16;8.82;;;6.38;;
70253;SDS011;57649;42.968;1.608;2023-06-14T11:52:42;8.68;;;6.70;;
70253;SDS011;57649;42.968;1.608;2023-06-14T11:55:08;8.20;;;6.22;;
70253;SDS011;57649;42.968;1.608;2023-06-14T11:57:34;9.45;;;5.90;;
70253;SDS011;57649;42.968;1.608;2023-06-14T12:00:02;8.85;;;5.65;;
70253;SDS011;57649;42.968;1.608;2023-06-14T12:02:31;6.72;;;5.60;;
70253;SDS011;57649;42.968;1.608;2023-06-14T12:05:03;6.38;;;5.25;;
70253;SDS011;57649;42.968;1.608;2023-06-14T12:07:30;7.80;;;5.45;;
70253;SDS011;57649;42.968;1.608;2023-06-14T12:12:22;6.65;;;5.30;;
70253;SDS011;57649;42.968;1.608;2023-06-14T12:14:47;5.93;;;5.00;;
70253;SDS011;57649;42.968;1.608;2023-06-14T12:17:16;7.88;;;5.43;;
70253;SDS011;57649;42.968;1.608;2023-06-14T12:19:43;7.22;;;5.20;;
70253;SDS011;57649;42.968;1.608;2023-06-14T12:22:10;7.07;;;4.90;;
70253;SDS011;57649;42.968;1.608;2023-06-14T12:24:36;7.25;;;5.13;;
70253;SDS011;57649;42.968;1.608;2023-06-14T12:27:03;7.53;;;4.82;;
70253;SDS011;57649;42.968;1.608;2023-06-14T12:29:31;7.63;;;5.07;;
70253;SDS011;57649;42.968;1.608;2023-06-14T12:31:56;6.38;;;4.90;;
70253;SDS011;57649;42.968;1.608;2023-06-14T12:34:25;6.30;;;5.30;;
70253;SDS011;57649;42.968;1.608;2023-06-14T12:36:54;12.68;;;10.05;;
70253;SDS011;57649;42.968;1.608;2023-06-14T12:39:20;5.88;;;4.53;;
70253;SDS011;57649;42.968;1.608;2023-06-14T12:41:52;8.05;;;4.70;;
70253;SDS011;57649;42.968;1.608;2023-06-14T12:44:19;6.85;;;4.80;;
70253;SDS011;57649;42.968;1.608;2023-06-14T12:46:44;6.03;;;4.28;;
70253;SDS011;57649;42.968;1.608;2023-06-14T12:49:11;6.78;;;4.80;;
70253;SDS011;57649;42.968;1.608;2023-06-14T12:51:37;5.57;;;4.50;;
70253;SDS011;57649;42.968;1.608;2023-06-14T12:54:04;5.43;;;4.30;;
70253;SDS011;57649;42.968;1.608;2023-06-14T12:56:29;5.18;;;4.40;;
70253;SDS011;57649;42.968;1.608;2023-06-14T12:58:55;6.25;;;4.88;;
70253;SDS011;57649;42.968;1.608;2023-06-14T13:01:20;4.85;;;4.05;;
70253;SDS011;57649;42.968;1.608;2023-06-14T13:03:48;5.47;;;4.20;;
70253;SDS011;57649;42.968;1.608;2023-06-14T13:06:16;4.75;;;3.83;;
70253;SDS011;57649;42.968;1.608;2023-06-14T13:08:42;4.65;;;4.15;;
70253;SDS011;57649;42.968;1.608;2023-06-14T13:11:08;6.60;;;4.55;;
70253;SDS011;57649;42.968;1.608;2023-06-14T13:13:33;6.75;;;4.35;;
70253;SDS011;57649;42.968;1.608;2023-06-14T13:15:59;7.47;;;4.65;;
70253;SDS011;57649;42.968;1.608;2023-06-14T13:18:25;4.65;;;4.25;;
70253;SDS011;57649;42.968;1.608;2023-06-14T13:20:50;5.55;;;4.43;;
70253;SDS011;57649;42.968;1.608;2023-06-14T13:23:16;5.30;;;4.40;;
70253;SDS011;57649;42.968;1.608;2023-06-14T13:25:42;5.40;;;4.53;;
70253;SDS011;57649;42.968;1.608;2023-06-14T13:28:07;5.10;;;4.55;;
70253;SDS011;57649;42.968;1.608;2023-06-14T13:30:33;6.68;;;5.55;;
70253;SDS011;57649;42.968;1.608;2023-06-14T13:33:00;6.82;;;4.47;;
70253;SDS011;57649;42.968;1.608;2023-06-14T13:35:25;9.93;;;5.05;;
70253;SDS011;57649;42.968;1.608;2023-06-14T13:37:51;7.25;;;4.68;;
70253;SDS011;57649;42.968;1.608;2023-06-14T13:40:17;5.47;;;4.22;;
70253;SDS011;57649;42.968;1.608;2023-06-14T13:42:42;9.43;;;4.70;;
70253;SDS011;57649;42.968;1.608;2023-06-14T13:45:08;5.03;;;4.53;;
70253;SDS011;57649;42.968;1.608;2023-06-14T13:47:35;6.18;;;4.30;;
70253;SDS011;57649;42.968;1.608;2023-06-14T13:50:01;6.95;;;4.38;;
70253;SDS011;57649;42.968;1.608;2023-06-14T13:52:27;6.97;;;4.70;;
70253;SDS011;57649;42.968;1.608;2023-06-14T13:54:52;6.13;;;4.70;;
70253;SDS011;57649;42.968;1.608;2023-06-14T13:57:18;6.53;;;4.45;;
70253;SDS011;57649;42.968;1.608;2023-06-14T13:59:43;8.43;;;4.38;;
70253;SDS011;57649;42.968;1.608;2023-06-14T14:02:09;7.55;;;4.28;;
70253;SDS011;57649;42.968;1.608;2023-06-14T14:04:36;5.97;;;4.90;;
70253;SDS011;57649;42.968;1.608;2023-06-14T14:07:02;5.45;;;4.50;;
70253;SDS011;57649;42.968;1.608;2023-06-14T14:09:28;5.30;;;4.47;;
70253;SDS011;57649;42.968;1.608;2023-06-14T14:11:54;6.20;;;4.50;;
70253;SDS011;57649;42.968;1.608;2023-06-14T14:14:19;7.15;;;4.78;;
70253;SDS011;57649;42.968;1.608;2023-06-14T14:16:45;7.30;;;4.93;;
70253;SDS011;57649;42.968;1.608;2023-06-14T14:19:10;5.90;;;4.40;;
70253;SDS011;57649;42.968;1.608;2023-06-14T14:21:36;6.32;;;4.57;;
70253;SDS011;57649;42.968;1.608;2023-06-14T14:24:01;7.22;;;5.03;;
70253;SDS011;57649;42.968;1.608;2023-06-14T14:26:27;7.53;;;6.55;;
70253;SDS011;57649;42.968;1.608;2023-06-14T14:28:52;9.68;;;6.93;;
70253;SDS011;57649;42.968;1.608;2023-06-14T14:31:18;13.57;;;9.98;;
70253;SDS011;57649;42.968;1.608;2023-06-14T14:33:43;9.93;;;6.85;;
70253;SDS011;57649;42.968;1.608;2023-06-14T14:36:09;8.32;;;6.25;;
70253;SDS011;57649;42.968;1.608;2023-06-14T14:38:34;7.65;;;5.78;;
70253;SDS011;57649;42.968;1.608;2023-06-14T14:41:00;9.65;;;7.82;;
70253;SDS011;57649;42.968;1.608;2023-06-14T14:43:25;6.97;;;5.35;;
70253;SDS011;57649;42.968;1.608;2023-06-14T14:45:51;5.95;;;4.90;;
70253;SDS011;57649;42.968;1.608;2023-06-14T14:48:17;6.68;;;5.45;;
70253;SDS011;57649;42.968;1.608;2023-06-14T14:50:42;8.13;;;5.10;;
70253;SDS011;57649;42.968;1.608;2023-06-14T14:53:08;5.70;;;4.80;;
70253;SDS011;57649;42.968;1.608;2023-06-14T14:55:33;5.95;;;4.82;;
70253;SDS011;57649;42.968;1.608;2023-06-14T14:58:01;6.28;;;4.55;;
70253;SDS011;57649;42.968;1.608;2023-06-14T15:00:27;8.00;;;4.50;;
70253;SDS011;57649;42.968;1.608;2023-06-14T15:02:52;8.65;;;7.63;;
70253;SDS011;57649;42.968;1.608;2023-06-14T15:05:18;6.82;;;5.05;;
70253;SDS011;57649;42.968;1.608;2023-06-14T15:07:43;7.00;;;5.05;;
70253;SDS011;57649;42.968;1.608;2023-06-14T15:10:10;6.22;;;4.25;;